Aérodrome :
LOGIN :

S'inscrire | Disclaimer

   EN    FR    IT 

 










Légende :    VFR   VFR Marginal   IFR   IFR Intensif   IFR Très Intensif
Visi : 
Plafond : 
>= 8 km
>= 3000ft
5 à 8 km
1000 à 3000 ft
1500m à 5 km
500 à 1000 ft
800 à 1500m
200 à 500 ft
< 800m
< 200 ft
Symboles :   Orages  Brouillard  Fortes neiges  Fortes précipitations  Vent > 20 kt
SIGMETs :   Divers  Orages  Givrage  Turbulence  Onde Orograph.  Cendres Volcan.







- Altitude de l'aérodrome : 115 ft
- Code IATA : HER


LGIR - Nikos Kazantzakis

DERNIER METAR :
  • 240220Z 17007KT 9999 FEW018TCU SCT025 09/07 Q1015 NOSIG

METARs EXPIRÉS :
  • 240150Z 17006KT 9999 FEW018TCU SCT025 09/07 Q1015 NOSIG
  • 240120Z 17006KT 9999 FEW025 10/07 Q1015 NOSIG
  • 240050Z 16008KT 9999 FEW025 10/07 Q1015 NOSIG
  • 240020Z 16005KT 9999 FEW025 10/07 Q1015 NOSIG
  • 232350Z 18004KT 9999 FEW025 10/07 Q1015 NOSIG

TAF TAF LGIR
Valide du 24 à 00h jusqu'au 25 à 00h UTC


232300Z 2400/2424 18012KT 9999 FEW020 SCT080
BECMG 2410/2412 04010KT SCT020 BKN080
PROB30
TEMPO 2400/2418 5000 RA BKN020 BKN080
Pas de NOTAMs connus pour ce terrain.
4 SIGMETs publiés pour la FIR Athinai (LGGG) :
 
Turbulence forte
LGGG SIGMET 17 VALID 232345/240345 LGAT
LGGG ATHINAI FIR SEV TURB FCST N OF LINE N3900 E02640 - N3550 E02320 - N3700 E01900 SFC/FL150 STNR NC=
Orages noyés dans la masse
LGGG SIGMET 16 VALID 232313/240300 LGAT
LGGG ATHINAI FIR/UIR EMBD TS OBS S OF N3800 AND E OF E02615 STNR NC=
Orages noyés dans la masse
LGGG SIGMET 15 VALID 232300/240300 LGAT
LGGG ATHINAI FIR/UIR EMBD TS OBS S OF LINE N3700 E01900 - N3650 E02300 - N3810 E02615 STNR NC=
Givrage fort
LGGG SIGMET 1 VALID 240200/240600 LGAT
LGGG ATHINAI FIR/UIR SEV ICE FCST N OF LINE N3900 E02640 - N3640 E02220 - N3940 E02030 ABV SFC STNR NC=



MET'MAP, la Météo Aéronautique d'un coup d'oeil ! - Copyright ORBIFLY Décembre 2007 - Disclaimer

ORBIFLY MET'MAP TEAM :

Programmation & Développement : Alexandra Zaïnal
Conception & Développement : Baudouin d'Aumeries
Co-Programmation & Développement : Marc-Olivier Méhu
Soutien technique & logistique : Manuel Goepfert

Contact : metmap@orbifly.com




SOURCES & CREDITS :

   NOAA